sensor_id;sensor_type;location;lat;lon;timestamp;P1;durP1;ratioP1;P2;durP2;ratioP2
611;SDS011;293;53.888;11.464;2022-11-15T00:00:32;51.70;;;31.73;;
611;SDS011;293;53.888;11.464;2022-11-15T00:02:59;51.63;;;32.75;;
611;SDS011;293;53.888;11.464;2022-11-15T00:05:26;49.83;;;31.90;;
611;SDS011;293;53.888;11.464;2022-11-15T00:07:53;51.92;;;32.58;;
611;SDS011;293;53.888;11.464;2022-11-15T00:10:20;48.80;;;31.95;;
611;SDS011;293;53.888;11.464;2022-11-15T00:12:47;53.92;;;33.75;;
611;SDS011;293;53.888;11.464;2022-11-15T00:15:15;53.50;;;33.60;;
611;SDS011;293;53.888;11.464;2022-11-15T00:17:42;55.80;;;33.97;;
611;SDS011;293;53.888;11.464;2022-11-15T00:20:09;51.20;;;32.83;;
611;SDS011;293;53.888;11.464;2022-11-15T00:22:37;47.93;;;29.90;;
611;SDS011;293;53.888;11.464;2022-11-15T00:25:04;45.10;;;29.85;;
611;SDS011;293;53.888;11.464;2022-11-15T00:27:31;53.88;;;33.03;;
611;SDS011;293;53.888;11.464;2022-11-15T00:29:58;42.80;;;30.47;;
611;SDS011;293;53.888;11.464;2022-11-15T00:32:26;49.08;;;32.22;;
611;SDS011;293;53.888;11.464;2022-11-15T00:34:57;47.53;;;30.13;;
611;SDS011;293;53.888;11.464;2022-11-15T00:37:24;48.03;;;31.33;;
611;SDS011;293;53.888;11.464;2022-11-15T00:39:51;44.40;;;30.37;;
611;SDS011;293;53.888;11.464;2022-11-15T00:42:18;49.03;;;32.00;;
611;SDS011;293;53.888;11.464;2022-11-15T00:44:44;44.08;;;29.88;;
611;SDS011;293;53.888;11.464;2022-11-15T00:47:11;40.05;;;29.75;;
611;SDS011;293;53.888;11.464;2022-11-15T00:49:41;49.08;;;32.13;;
611;SDS011;293;53.888;11.464;2022-11-15T00:52:07;48.40;;;30.85;;
611;SDS011;293;53.888;11.464;2022-11-15T00:54:34;47.22;;;30.42;;
611;SDS011;293;53.888;11.464;2022-11-15T00:57:01;44.80;;;30.85;;
611;SDS011;293;53.888;11.464;2022-11-15T00:59:28;46.05;;;30.20;;
611;SDS011;293;53.888;11.464;2022-11-15T01:01:55;45.00;;;29.10;;
611;SDS011;293;53.888;11.464;2022-11-15T01:04:22;49.67;;;29.27;;
611;SDS011;293;53.888;11.464;2022-11-15T01:06:50;46.42;;;31.30;;
611;SDS011;293;53.888;11.464;2022-11-15T01:09:17;46.58;;;29.77;;
611;SDS011;293;53.888;11.464;2022-11-15T01:11:44;41.67;;;29.00;;
611;SDS011;293;53.888;11.464;2022-11-15T01:14:11;48.97;;;33.25;;
611;SDS011;293;53.888;11.464;2022-11-15T01:16:38;48.38;;;32.05;;
611;SDS011;293;53.888;11.464;2022-11-15T01:19:05;47.92;;;30.58;;
611;SDS011;293;53.888;11.464;2022-11-15T01:21:32;41.33;;;28.90;;
611;SDS011;293;53.888;11.464;2022-11-15T01:24:00;44.67;;;29.85;;
611;SDS011;293;53.888;11.464;2022-11-15T01:26:27;46.00;;;31.10;;
611;SDS011;293;53.888;11.464;2022-11-15T01:28:54;41.92;;;32.00;;
611;SDS011;293;53.888;11.464;2022-11-15T01:31:21;45.70;;;30.15;;
611;SDS011;293;53.888;11.464;2022-11-15T01:33:48;48.70;;;31.08;;
611;SDS011;293;53.888;11.464;2022-11-15T01:36:18;46.50;;;30.58;;
611;SDS011;293;53.888;11.464;2022-11-15T01:38:47;50.90;;;32.55;;
611;SDS011;293;53.888;11.464;2022-11-15T01:41:21;54.08;;;31.67;;
611;SDS011;293;53.888;11.464;2022-11-15T01:43:52;46.75;;;30.90;;
611;SDS011;293;53.888;11.464;2022-11-15T01:46:25;41.03;;;29.73;;
611;SDS011;293;53.888;11.464;2022-11-15T01:48:56;50.20;;;32.13;;
611;SDS011;293;53.888;11.464;2022-11-15T01:51:26;43.58;;;30.48;;
611;SDS011;293;53.888;11.464;2022-11-15T01:53:58;44.70;;;29.70;;
611;SDS011;293;53.888;11.464;2022-11-15T01:56:30;44.72;;;29.30;;
611;SDS011;293;53.888;11.464;2022-11-15T01:58:59;45.67;;;28.88;;
611;SDS011;293;53.888;11.464;2022-11-15T02:01:29;47.95;;;31.80;;
611;SDS011;293;53.888;11.464;2022-11-15T02:03:58;50.45;;;31.13;;
611;SDS011;293;53.888;11.464;2022-11-15T02:06:28;46.05;;;31.27;;
611;SDS011;293;53.888;11.464;2022-11-15T02:08:55;45.22;;;30.20;;
611;SDS011;293;53.888;11.464;2022-11-15T02:11:23;46.95;;;30.00;;
611;SDS011;293;53.888;11.464;2022-11-15T02:13:51;46.17;;;29.67;;
611;SDS011;293;53.888;11.464;2022-11-15T02:16:21;46.05;;;31.00;;
611;SDS011;293;53.888;11.464;2022-11-15T02:18:55;45.58;;;31.88;;
611;SDS011;293;53.888;11.464;2022-11-15T02:21:28;44.88;;;28.42;;
611;SDS011;293;53.888;11.464;2022-11-15T02:27:18;41.15;;;28.90;;
611;SDS011;293;53.888;11.464;2022-11-15T02:30:24;41.40;;;27.60;;
611;SDS011;293;53.888;11.464;2022-11-15T02:33:02;43.75;;;28.48;;
611;SDS011;293;53.888;11.464;2022-11-15T02:35:37;37.03;;;27.17;;
611;SDS011;293;53.888;11.464;2022-11-15T02:38:12;43.15;;;27.70;;
611;SDS011;293;53.888;11.464;2022-11-15T02:40:52;45.55;;;29.88;;
611;SDS011;293;53.888;11.464;2022-11-15T02:43:24;48.25;;;31.13;;
611;SDS011;293;53.888;11.464;2022-11-15T02:46:14;46.00;;;29.52;;
611;SDS011;293;53.888;11.464;2022-11-15T02:49:09;43.75;;;28.98;;
611;SDS011;293;53.888;11.464;2022-11-15T02:51:38;50.92;;;32.03;;
611;SDS011;293;53.888;11.464;2022-11-15T02:54:05;43.40;;;28.35;;
611;SDS011;293;53.888;11.464;2022-11-15T02:56:33;53.13;;;30.83;;
611;SDS011;293;53.888;11.464;2022-11-15T02:59:03;39.83;;;28.70;;
611;SDS011;293;53.888;11.464;2022-11-15T03:01:53;45.05;;;29.73;;
611;SDS011;293;53.888;11.464;2022-11-15T03:04:34;47.95;;;32.08;;
611;SDS011;293;53.888;11.464;2022-11-15T03:07:11;46.58;;;29.35;;
611;SDS011;293;53.888;11.464;2022-11-15T03:09:46;46.00;;;31.77;;
611;SDS011;293;53.888;11.464;2022-11-15T03:12:27;48.47;;;30.58;;
611;SDS011;293;53.888;11.464;2022-11-15T03:15:01;45.90;;;29.42;;
611;SDS011;293;53.888;11.464;2022-11-15T03:17:34;50.47;;;31.25;;
611;SDS011;293;53.888;11.464;2022-11-15T03:20:05;41.10;;;28.85;;
611;SDS011;293;53.888;11.464;2022-11-15T03:22:34;47.63;;;30.38;;
611;SDS011;293;53.888;11.464;2022-11-15T03:25:05;36.53;;;25.25;;
611;SDS011;293;53.888;11.464;2022-11-15T03:27:35;49.42;;;30.80;;
611;SDS011;293;53.888;11.464;2022-11-15T03:30:06;41.10;;;27.20;;
611;SDS011;293;53.888;11.464;2022-11-15T03:32:36;40.83;;;27.88;;
611;SDS011;293;53.888;11.464;2022-11-15T03:35:08;39.67;;;26.27;;
611;SDS011;293;53.888;11.464;2022-11-15T03:37:41;42.67;;;27.13;;
611;SDS011;293;53.888;11.464;2022-11-15T03:40:11;41.03;;;27.13;;
611;SDS011;293;53.888;11.464;2022-11-15T03:42:41;39.45;;;27.20;;
611;SDS011;293;53.888;11.464;2022-11-15T03:45:14;39.47;;;27.83;;
611;SDS011;293;53.888;11.464;2022-11-15T03:47:46;37.88;;;26.75;;
611;SDS011;293;53.888;11.464;2022-11-15T03:50:18;41.45;;;28.25;;
611;SDS011;293;53.888;11.464;2022-11-15T03:52:47;40.33;;;26.55;;
611;SDS011;293;53.888;11.464;2022-11-15T03:55:17;37.72;;;26.98;;
611;SDS011;293;53.888;11.464;2022-11-15T03:57:46;48.20;;;29.23;;
611;SDS011;293;53.888;11.464;2022-11-15T04:00:16;44.40;;;28.95;;
611;SDS011;293;53.888;11.464;2022-11-15T04:02:43;46.40;;;32.60;;
611;SDS011;293;53.888;11.464;2022-11-15T04:05:11;47.42;;;29.70;;
611;SDS011;293;53.888;11.464;2022-11-15T04:07:38;50.67;;;30.15;;
611;SDS011;293;53.888;11.464;2022-11-15T04:10:06;44.47;;;29.33;;
611;SDS011;293;53.888;11.464;2022-11-15T04:12:35;46.58;;;30.55;;
611;SDS011;293;53.888;11.464;2022-11-15T04:15:06;42.25;;;27.60;;
611;SDS011;293;53.888;11.464;2022-11-15T04:17:36;40.92;;;27.35;;
611;SDS011;293;53.888;11.464;2022-11-15T04:20:05;41.33;;;27.65;;
611;SDS011;293;53.888;11.464;2022-11-15T04:22:53;39.58;;;26.05;;
611;SDS011;293;53.888;11.464;2022-11-15T04:25:38;43.58;;;28.40;;
611;SDS011;293;53.888;11.464;2022-11-15T04:28:05;48.53;;;28.63;;
611;SDS011;293;53.888;11.464;2022-11-15T04:30:32;38.97;;;27.95;;
611;SDS011;293;53.888;11.464;2022-11-15T04:32:59;40.72;;;27.85;;
611;SDS011;293;53.888;11.464;2022-11-15T04:35:26;44.35;;;29.83;;
611;SDS011;293;53.888;11.464;2022-11-15T04:37:55;47.92;;;29.88;;
611;SDS011;293;53.888;11.464;2022-11-15T04:40:22;40.63;;;27.65;;
611;SDS011;293;53.888;11.464;2022-11-15T04:42:49;43.85;;;29.50;;
611;SDS011;293;53.888;11.464;2022-11-15T04:45:16;40.35;;;26.98;;
611;SDS011;293;53.888;11.464;2022-11-15T04:47:43;44.85;;;30.63;;
611;SDS011;293;53.888;11.464;2022-11-15T04:50:11;40.00;;;27.58;;
611;SDS011;293;53.888;11.464;2022-11-15T04:52:39;41.58;;;29.65;;
611;SDS011;293;53.888;11.464;2022-11-15T04:55:08;40.90;;;27.83;;
611;SDS011;293;53.888;11.464;2022-11-15T04:57:36;40.40;;;27.15;;
611;SDS011;293;53.888;11.464;2022-11-15T05:00:04;43.20;;;28.33;;
611;SDS011;293;53.888;11.464;2022-11-15T05:02:32;41.63;;;29.88;;
611;SDS011;293;53.888;11.464;2022-11-15T05:05:13;37.88;;;26.50;;
611;SDS011;293;53.888;11.464;2022-11-15T05:07:40;40.70;;;26.63;;
611;SDS011;293;53.888;11.464;2022-11-15T05:10:07;39.88;;;27.45;;
611;SDS011;293;53.888;11.464;2022-11-15T05:12:35;40.63;;;27.73;;
611;SDS011;293;53.888;11.464;2022-11-15T05:15:03;38.75;;;28.02;;
611;SDS011;293;53.888;11.464;2022-11-15T05:17:30;42.22;;;29.17;;
611;SDS011;293;53.888;11.464;2022-11-15T05:19:57;41.75;;;28.42;;
611;SDS011;293;53.888;11.464;2022-11-15T05:22:24;39.30;;;26.75;;
611;SDS011;293;53.888;11.464;2022-11-15T05:24:50;42.55;;;29.13;;
611;SDS011;293;53.888;11.464;2022-11-15T05:27:19;36.67;;;26.92;;
611;SDS011;293;53.888;11.464;2022-11-15T05:29:45;39.60;;;27.50;;
611;SDS011;293;53.888;11.464;2022-11-15T05:32:12;43.33;;;28.40;;
611;SDS011;293;53.888;11.464;2022-11-15T05:34:39;38.30;;;27.00;;
611;SDS011;293;53.888;11.464;2022-11-15T05:37:06;38.72;;;26.05;;
611;SDS011;293;53.888;11.464;2022-11-15T05:39:33;39.08;;;25.58;;
611;SDS011;293;53.888;11.464;2022-11-15T05:42:01;40.85;;;26.80;;
611;SDS011;293;53.888;11.464;2022-11-15T05:44:34;43.72;;;27.13;;
611;SDS011;293;53.888;11.464;2022-11-15T05:47:03;39.70;;;27.52;;
611;SDS011;293;53.888;11.464;2022-11-15T05:49:33;43.08;;;31.52;;
611;SDS011;293;53.888;11.464;2022-11-15T05:52:02;38.60;;;27.60;;
611;SDS011;293;53.888;11.464;2022-11-15T05:54:31;42.00;;;25.98;;
611;SDS011;293;53.888;11.464;2022-11-15T05:56:59;43.45;;;28.80;;
611;SDS011;293;53.888;11.464;2022-11-15T05:59:27;61.53;;;40.28;;
611;SDS011;293;53.888;11.464;2022-11-15T06:01:57;74.32;;;41.20;;
611;SDS011;293;53.888;11.464;2022-11-15T06:04:24;46.38;;;28.83;;
611;SDS011;293;53.888;11.464;2022-11-15T06:06:51;42.17;;;29.08;;
611;SDS011;293;53.888;11.464;2022-11-15T06:09:18;47.15;;;30.15;;
611;SDS011;293;53.888;11.464;2022-11-15T06:11:45;39.83;;;27.83;;
611;SDS011;293;53.888;11.464;2022-11-15T06:14:12;44.78;;;29.13;;
611;SDS011;293;53.888;11.464;2022-11-15T06:16:39;45.88;;;30.75;;
611;SDS011;293;53.888;11.464;2022-11-15T06:19:08;39.78;;;30.27;;
611;SDS011;293;53.888;11.464;2022-11-15T06:21:34;45.28;;;30.05;;
611;SDS011;293;53.888;11.464;2022-11-15T06:24:01;44.35;;;28.70;;
611;SDS011;293;53.888;11.464;2022-11-15T06:26:29;43.70;;;28.83;;
611;SDS011;293;53.888;11.464;2022-11-15T06:28:55;43.08;;;30.67;;
611;SDS011;293;53.888;11.464;2022-11-15T06:31:22;45.25;;;30.30;;
611;SDS011;293;53.888;11.464;2022-11-15T06:33:49;46.72;;;28.45;;
611;SDS011;293;53.888;11.464;2022-11-15T06:36:17;47.03;;;29.13;;
611;SDS011;293;53.888;11.464;2022-11-15T06:38:46;41.53;;;29.52;;
611;SDS011;293;53.888;11.464;2022-11-15T06:41:13;38.70;;;27.23;;
611;SDS011;293;53.888;11.464;2022-11-15T06:43:41;44.40;;;28.93;;
611;SDS011;293;53.888;11.464;2022-11-15T06:46:09;132.60;;;97.60;;
611;SDS011;293;53.888;11.464;2022-11-15T06:48:35;79.32;;;51.75;;
611;SDS011;293;53.888;11.464;2022-11-15T06:51:03;49.20;;;36.30;;
611;SDS011;293;53.888;11.464;2022-11-15T06:53:32;50.50;;;36.50;;
611;SDS011;293;53.888;11.464;2022-11-15T06:55:59;37.83;;;26.95;;
611;SDS011;293;53.888;11.464;2022-11-15T06:58:26;38.45;;;26.60;;
611;SDS011;293;53.888;11.464;2022-11-15T07:00:53;39.43;;;28.10;;
611;SDS011;293;53.888;11.464;2022-11-15T07:03:24;42.40;;;28.77;;
611;SDS011;293;53.888;11.464;2022-11-15T07:05:52;44.67;;;26.50;;
611;SDS011;293;53.888;11.464;2022-11-15T07:08:20;39.78;;;29.73;;
611;SDS011;293;53.888;11.464;2022-11-15T07:10:48;37.77;;;27.43;;
611;SDS011;293;53.888;11.464;2022-11-15T07:13:15;36.80;;;25.53;;
611;SDS011;293;53.888;11.464;2022-11-15T07:15:42;34.23;;;26.50;;
611;SDS011;293;53.888;11.464;2022-11-15T07:18:09;35.50;;;25.37;;
611;SDS011;293;53.888;11.464;2022-11-15T07:20:36;41.00;;;27.50;;
611;SDS011;293;53.888;11.464;2022-11-15T07:23:04;38.23;;;24.70;;
611;SDS011;293;53.888;11.464;2022-11-15T07:25:31;35.57;;;25.13;;
611;SDS011;293;53.888;11.464;2022-11-15T07:28:00;32.67;;;24.50;;
611;SDS011;293;53.888;11.464;2022-11-15T07:30:27;33.50;;;26.43;;
611;SDS011;293;53.888;11.464;2022-11-15T07:32:55;39.00;;;27.40;;
611;SDS011;293;53.888;11.464;2022-11-15T07:35:23;38.03;;;27.73;;
611;SDS011;293;53.888;11.464;2022-11-15T07:37:54;34.53;;;25.77;;
611;SDS011;293;53.888;11.464;2022-11-15T07:40:22;41.20;;;29.20;;
611;SDS011;293;53.888;11.464;2022-11-15T07:42:49;43.53;;;30.83;;
611;SDS011;293;53.888;11.464;2022-11-15T07:45:20;39.50;;;24.80;;
611;SDS011;293;53.888;11.464;2022-11-15T07:47:48;35.37;;;26.60;;
611;SDS011;293;53.888;11.464;2022-11-15T07:50:16;39.23;;;27.07;;
611;SDS011;293;53.888;11.464;2022-11-15T07:52:43;41.00;;;30.87;;
611;SDS011;293;53.888;11.464;2022-11-15T07:55:11;77.53;;;57.67;;
611;SDS011;293;53.888;11.464;2022-11-15T07:57:38;60.23;;;41.73;;
611;SDS011;293;53.888;11.464;2022-11-15T08:00:05;39.00;;;29.00;;
611;SDS011;293;53.888;11.464;2022-11-15T08:02:34;29.30;;;23.60;;
611;SDS011;293;53.888;11.464;2022-11-15T08:05:01;38.90;;;26.10;;
611;SDS011;293;53.888;11.464;2022-11-15T08:07:29;35.90;;;24.77;;
611;SDS011;293;53.888;11.464;2022-11-15T08:09:56;35.93;;;27.27;;
611;SDS011;293;53.888;11.464;2022-11-15T08:12:23;32.23;;;24.40;;
611;SDS011;293;53.888;11.464;2022-11-15T08:14:50;35.40;;;24.13;;
611;SDS011;293;53.888;11.464;2022-11-15T08:17:17;37.97;;;26.80;;
611;SDS011;293;53.888;11.464;2022-11-15T08:19:45;33.30;;;25.10;;
611;SDS011;293;53.888;11.464;2022-11-15T08:22:13;32.23;;;24.70;;
611;SDS011;293;53.888;11.464;2022-11-15T08:24:40;34.00;;;24.87;;
611;SDS011;293;53.888;11.464;2022-11-15T08:27:06;33.90;;;23.50;;
611;SDS011;293;53.888;11.464;2022-11-15T08:29:40;34.57;;;23.80;;
611;SDS011;293;53.888;11.464;2022-11-15T08:32:07;34.87;;;25.93;;
611;SDS011;293;53.888;11.464;2022-11-15T08:34:34;30.97;;;21.80;;
611;SDS011;293;53.888;11.464;2022-11-15T08:37:03;32.20;;;22.43;;
611;SDS011;293;53.888;11.464;2022-11-15T08:39:30;29.17;;;24.00;;
611;SDS011;293;53.888;11.464;2022-11-15T08:41:58;31.57;;;22.77;;
611;SDS011;293;53.888;11.464;2022-11-15T08:44:25;27.67;;;21.77;;
611;SDS011;293;53.888;11.464;2022-11-15T08:46:52;31.13;;;23.83;;
611;SDS011;293;53.888;11.464;2022-11-15T08:49:19;29.23;;;21.87;;
611;SDS011;293;53.888;11.464;2022-11-15T08:51:46;31.00;;;24.07;;
611;SDS011;293;53.888;11.464;2022-11-15T08:54:14;36.87;;;27.03;;
611;SDS011;293;53.888;11.464;2022-11-15T08:56:41;32.67;;;23.43;;
611;SDS011;293;53.888;11.464;2022-11-15T08:59:08;35.10;;;24.83;;
611;SDS011;293;53.888;11.464;2022-11-15T09:01:35;32.20;;;22.97;;
611;SDS011;293;53.888;11.464;2022-11-15T09:04:02;34.30;;;25.80;;
611;SDS011;293;53.888;11.464;2022-11-15T09:06:30;29.17;;;23.10;;
611;SDS011;293;53.888;11.464;2022-11-15T09:08:57;32.00;;;23.40;;
611;SDS011;293;53.888;11.464;2022-11-15T09:11:25;34.60;;;23.73;;
611;SDS011;293;53.888;11.464;2022-11-15T09:13:52;28.10;;;22.80;;
611;SDS011;293;53.888;11.464;2022-11-15T09:16:19;28.93;;;22.00;;
611;SDS011;293;53.888;11.464;2022-11-15T09:18:46;27.93;;;23.07;;
611;SDS011;293;53.888;11.464;2022-11-15T09:21:13;33.03;;;23.63;;
611;SDS011;293;53.888;11.464;2022-11-15T09:23:40;26.27;;;22.90;;
611;SDS011;293;53.888;11.464;2022-11-15T09:26:07;25.90;;;19.70;;
611;SDS011;293;53.888;11.464;2022-11-15T09:28:35;34.43;;;25.07;;
611;SDS011;293;53.888;11.464;2022-11-15T09:31:04;26.43;;;22.07;;
611;SDS011;293;53.888;11.464;2022-11-15T09:33:32;27.50;;;20.40;;
611;SDS011;293;53.888;11.464;2022-11-15T09:36:00;27.40;;;20.60;;
611;SDS011;293;53.888;11.464;2022-11-15T09:38:27;29.13;;;23.43;;
611;SDS011;293;53.888;11.464;2022-11-15T09:40:58;31.50;;;25.37;;
611;SDS011;293;53.888;11.464;2022-11-15T09:43:42;39.83;;;28.63;;
611;SDS011;293;53.888;11.464;2022-11-15T09:46:15;111.90;;;69.43;;
611;SDS011;293;53.888;11.464;2022-11-15T09:48:49;38.90;;;27.40;;
611;SDS011;293;53.888;11.464;2022-11-15T09:51:21;29.37;;;20.17;;
611;SDS011;293;53.888;11.464;2022-11-15T09:53:57;26.00;;;21.10;;
611;SDS011;293;53.888;11.464;2022-11-15T09:56:29;23.73;;;18.90;;
611;SDS011;293;53.888;11.464;2022-11-15T09:59:02;26.70;;;19.07;;
611;SDS011;293;53.888;11.464;2022-11-15T10:01:43;25.73;;;21.10;;
611;SDS011;293;53.888;11.464;2022-11-15T10:04:19;26.37;;;20.70;;
611;SDS011;293;53.888;11.464;2022-11-15T10:06:49;21.93;;;17.50;;
611;SDS011;293;53.888;11.464;2022-11-15T10:09:21;24.30;;;19.50;;
611;SDS011;293;53.888;11.464;2022-11-15T10:11:54;22.53;;;19.63;;
611;SDS011;293;53.888;11.464;2022-11-15T10:14:23;24.53;;;20.17;;
611;SDS011;293;53.888;11.464;2022-11-15T10:17:06;23.87;;;18.87;;
611;SDS011;293;53.888;11.464;2022-11-15T10:19:50;22.03;;;19.13;;
611;SDS011;293;53.888;11.464;2022-11-15T10:22:25;21.50;;;17.30;;
611;SDS011;293;53.888;11.464;2022-11-15T10:24:59;21.93;;;18.80;;
611;SDS011;293;53.888;11.464;2022-11-15T10:27:38;20.73;;;16.80;;
611;SDS011;293;53.888;11.464;2022-11-15T10:30:10;20.73;;;18.37;;
611;SDS011;293;53.888;11.464;2022-11-15T10:32:39;26.20;;;18.90;;
611;SDS011;293;53.888;11.464;2022-11-15T10:35:23;22.60;;;18.03;;
611;SDS011;293;53.888;11.464;2022-11-15T10:37:51;20.10;;;16.50;;
611;SDS011;293;53.888;11.464;2022-11-15T10:40:30;25.37;;;20.60;;
611;SDS011;293;53.888;11.464;2022-11-15T10:43:03;24.23;;;18.37;;
611;SDS011;293;53.888;11.464;2022-11-15T10:45:33;20.27;;;17.53;;
611;SDS011;293;53.888;11.464;2022-11-15T10:48:20;22.33;;;19.10;;
611;SDS011;293;53.888;11.464;2022-11-15T10:50:49;19.73;;;16.97;;
611;SDS011;293;53.888;11.464;2022-11-15T10:53:20;19.07;;;16.53;;
611;SDS011;293;53.888;11.464;2022-11-15T10:55:57;20.23;;;17.80;;
611;SDS011;293;53.888;11.464;2022-11-15T10:58:30;18.73;;;15.33;;
611;SDS011;293;53.888;11.464;2022-11-15T11:01:09;19.63;;;15.50;;
611;SDS011;293;53.888;11.464;2022-11-15T11:03:39;16.60;;;14.53;;
611;SDS011;293;53.888;11.464;2022-11-15T11:06:08;18.20;;;16.17;;
611;SDS011;293;53.888;11.464;2022-11-15T11:08:37;19.83;;;17.80;;
611;SDS011;293;53.888;11.464;2022-11-15T11:11:04;15.40;;;13.90;;
611;SDS011;293;53.888;11.464;2022-11-15T11:13:33;18.13;;;16.07;;
611;SDS011;293;53.888;11.464;2022-11-15T11:19:17;17.40;;;15.60;;
611;SDS011;293;53.888;11.464;2022-11-15T11:22:01;15.90;;;14.30;;
611;SDS011;293;53.888;11.464;2022-11-15T11:24:32;15.83;;;14.20;;
611;SDS011;293;53.888;11.464;2022-11-15T11:27:09;16.77;;;15.07;;
611;SDS011;293;53.888;11.464;2022-11-15T11:29:56;17.73;;;15.87;;
611;SDS011;293;53.888;11.464;2022-11-15T11:32:33;16.17;;;14.50;;
611;SDS011;293;53.888;11.464;2022-11-15T11:35:09;17.73;;;15.83;;
611;SDS011;293;53.888;11.464;2022-11-15T11:37:42;15.87;;;14.17;;
611;SDS011;293;53.888;11.464;2022-11-15T11:40:16;17.80;;;15.83;;
611;SDS011;293;53.888;11.464;2022-11-15T11:42:54;17.90;;;15.87;;
611;SDS011;293;53.888;11.464;2022-11-15T11:45:40;19.83;;;16.63;;
611;SDS011;293;53.888;11.464;2022-11-15T11:48:20;18.43;;;14.57;;
611;SDS011;293;53.888;11.464;2022-11-15T11:51:03;16.40;;;14.77;;
611;SDS011;293;53.888;11.464;2022-11-15T11:53:37;17.80;;;15.43;;
611;SDS011;293;53.888;11.464;2022-11-15T11:56:11;18.93;;;16.47;;
611;SDS011;293;53.888;11.464;2022-11-15T11:58:46;17.57;;;15.67;;
611;SDS011;293;53.888;11.464;2022-11-15T12:01:16;20.30;;;17.00;;
611;SDS011;293;53.888;11.464;2022-11-15T12:03:51;17.17;;;15.37;;
611;SDS011;293;53.888;11.464;2022-11-15T12:06:24;18.00;;;16.20;;
611;SDS011;293;53.888;11.464;2022-11-15T12:08:58;19.03;;;16.17;;
611;SDS011;293;53.888;11.464;2022-11-15T12:11:29;18.30;;;16.40;;
611;SDS011;293;53.888;11.464;2022-11-15T12:14:03;18.57;;;16.67;;
611;SDS011;293;53.888;11.464;2022-11-15T12:16:37;48.47;;;41.87;;
611;SDS011;293;53.888;11.464;2022-11-15T12:19:08;68.30;;;58.20;;
611;SDS011;293;53.888;11.464;2022-11-15T12:21:36;28.40;;;21.97;;
611;SDS011;293;53.888;11.464;2022-11-15T12:24:12;21.10;;;16.30;;
611;SDS011;293;53.888;11.464;2022-11-15T12:26:45;17.17;;;15.40;;
611;SDS011;293;53.888;11.464;2022-11-15T12:29:16;20.47;;;18.20;;
611;SDS011;293;53.888;11.464;2022-11-15T12:31:50;19.47;;;17.57;;
611;SDS011;293;53.888;11.464;2022-11-15T12:34:34;21.73;;;17.87;;
611;SDS011;293;53.888;11.464;2022-11-15T12:40:19;18.10;;;15.93;;
611;SDS011;293;53.888;11.464;2022-11-15T12:43:10;20.93;;;17.43;;
611;SDS011;293;53.888;11.464;2022-11-15T12:46:06;20.50;;;18.30;;
611;SDS011;293;53.888;11.464;2022-11-15T12:54:52;20.10;;;18.00;;
611;SDS011;293;53.888;11.464;2022-11-15T12:57:40;22.93;;;17.37;;
611;SDS011;293;53.888;11.464;2022-11-15T13:03:18;20.27;;;18.17;;
611;SDS011;293;53.888;11.464;2022-11-15T13:06:03;18.10;;;16.17;;
611;SDS011;293;53.888;11.464;2022-11-15T13:08:40;16.43;;;14.10;;
611;SDS011;293;53.888;11.464;2022-11-15T13:17:35;18.47;;;14.20;;
611;SDS011;293;53.888;11.464;2022-11-15T13:20:18;18.43;;;15.70;;
611;SDS011;293;53.888;11.464;2022-11-15T13:22:48;17.63;;;15.83;;
611;SDS011;293;53.888;11.464;2022-11-15T13:25:26;22.00;;;16.70;;
611;SDS011;293;53.888;11.464;2022-11-15T13:28:20;17.20;;;15.40;;
611;SDS011;293;53.888;11.464;2022-11-15T13:30:52;17.47;;;14.67;;
611;SDS011;293;53.888;11.464;2022-11-15T13:33:21;18.57;;;14.83;;
611;SDS011;293;53.888;11.464;2022-11-15T13:35:51;16.97;;;14.77;;
611;SDS011;293;53.888;11.464;2022-11-15T13:38:25;19.87;;;16.87;;
611;SDS011;293;53.888;11.464;2022-11-15T13:40:53;18.33;;;15.47;;
611;SDS011;293;53.888;11.464;2022-11-15T13:43:26;24.30;;;18.57;;
611;SDS011;293;53.888;11.464;2022-11-15T13:46:10;17.20;;;15.37;;
611;SDS011;293;53.888;11.464;2022-11-15T13:48:39;19.10;;;17.10;;
611;SDS011;293;53.888;11.464;2022-11-15T13:51:08;19.00;;;16.90;;
611;SDS011;293;53.888;11.464;2022-11-15T13:53:42;18.83;;;15.87;;
611;SDS011;293;53.888;11.464;2022-11-15T13:56:14;19.33;;;16.67;;
611;SDS011;293;53.888;11.464;2022-11-15T13:58:42;16.93;;;15.13;;
611;SDS011;293;53.888;11.464;2022-11-15T14:01:14;18.70;;;16.10;;
611;SDS011;293;53.888;11.464;2022-11-15T14:03:50;20.37;;;18.20;;
611;SDS011;293;53.888;11.464;2022-11-15T14:06:22;20.03;;;17.20;;
611;SDS011;293;53.888;11.464;2022-11-15T14:08:59;20.80;;;16.97;;
611;SDS011;293;53.888;11.464;2022-11-15T14:11:29;21.10;;;17.47;;
611;SDS011;293;53.888;11.464;2022-11-15T14:14:03;22.10;;;18.57;;
611;SDS011;293;53.888;11.464;2022-11-15T14:16:40;21.20;;;18.90;;
611;SDS011;293;53.888;11.464;2022-11-15T14:19:09;25.03;;;19.87;;
611;SDS011;293;53.888;11.464;2022-11-15T14:21:37;24.23;;;19.90;;
611;SDS011;293;53.888;11.464;2022-11-15T14:24:36;21.47;;;19.10;;
611;SDS011;293;53.888;11.464;2022-11-15T14:27:20;25.00;;;21.03;;
611;SDS011;293;53.888;11.464;2022-11-15T14:29:49;24.83;;;19.97;;
611;SDS011;293;53.888;11.464;2022-11-15T14:32:16;24.77;;;21.53;;
611;SDS011;293;53.888;11.464;2022-11-15T14:34:46;26.97;;;21.00;;
611;SDS011;293;53.888;11.464;2022-11-15T14:37:20;29.23;;;20.77;;
611;SDS011;293;53.888;11.464;2022-11-15T14:39:49;27.03;;;21.33;;
611;SDS011;293;53.888;11.464;2022-11-15T14:42:17;25.93;;;21.87;;
611;SDS011;293;53.888;11.464;2022-11-15T14:44:44;23.00;;;18.70;;
611;SDS011;293;53.888;11.464;2022-11-15T14:47:11;24.47;;;20.10;;
611;SDS011;293;53.888;11.464;2022-11-15T14:49:38;26.63;;;20.60;;
611;SDS011;293;53.888;11.464;2022-11-15T14:52:07;23.53;;;19.77;;
611;SDS011;293;53.888;11.464;2022-11-15T14:54:52;24.67;;;19.27;;
611;SDS011;293;53.888;11.464;2022-11-15T14:57:19;25.73;;;20.47;;
611;SDS011;293;53.888;11.464;2022-11-15T14:59:46;23.57;;;19.90;;
611;SDS011;293;53.888;11.464;2022-11-15T15:02:15;27.47;;;20.77;;
611;SDS011;293;53.888;11.464;2022-11-15T15:04:44;25.40;;;20.40;;
611;SDS011;293;53.888;11.464;2022-11-15T15:07:11;30.40;;;23.90;;
611;SDS011;293;53.888;11.464;2022-11-15T15:09:39;25.97;;;21.40;;
611;SDS011;293;53.888;11.464;2022-11-15T15:12:09;29.77;;;22.50;;
611;SDS011;293;53.888;11.464;2022-11-15T15:14:42;27.87;;;22.03;;
611;SDS011;293;53.888;11.464;2022-11-15T15:17:09;27.60;;;22.20;;
611;SDS011;293;53.888;11.464;2022-11-15T15:19:36;24.27;;;20.97;;
611;SDS011;293;53.888;11.464;2022-11-15T15:22:03;26.90;;;22.80;;
611;SDS011;293;53.888;11.464;2022-11-15T15:24:30;31.33;;;23.03;;
611;SDS011;293;53.888;11.464;2022-11-15T15:26:59;27.97;;;22.63;;
611;SDS011;293;53.888;11.464;2022-11-15T15:29:26;28.37;;;23.00;;
611;SDS011;293;53.888;11.464;2022-11-15T15:31:53;29.97;;;21.90;;
611;SDS011;293;53.888;11.464;2022-11-15T15:34:20;29.27;;;24.13;;
611;SDS011;293;53.888;11.464;2022-11-15T15:36:46;30.37;;;22.10;;
611;SDS011;293;53.888;11.464;2022-11-15T15:39:13;28.20;;;21.87;;
611;SDS011;293;53.888;11.464;2022-11-15T15:41:40;27.40;;;21.43;;
611;SDS011;293;53.888;11.464;2022-11-15T15:44:08;30.93;;;23.83;;
611;SDS011;293;53.888;11.464;2022-11-15T15:46:35;31.83;;;24.53;;